sensor_id;sensor_type;location;lat;lon;timestamp;temperature;humidity
58513;DHT22;44302;47.914;10.642;2022-12-07T09:42:37;2.30;99.90
58513;DHT22;44302;47.914;10.642;2022-12-07T10:01:51;2.50;99.90
58513;DHT22;44302;47.914;10.642;2022-12-07T10:05:56;2.60;99.90
58513;DHT22;44302;47.914;10.642;2022-12-07T10:09:47;2.50;99.90
58513;DHT22;44302;47.914;10.642;2022-12-07T10:13:53;2.50;99.90
58513;DHT22;44302;47.914;10.642;2022-12-07T10:17:53;2.50;99.90
58513;DHT22;44302;47.914;10.642;2022-12-07T10:22:14;2.50;99.90
58513;DHT22;44302;47.914;10.642;2022-12-07T10:25:51;2.50;99.90
58513;DHT22;44302;47.914;10.642;2022-12-07T10:29:54;2.50;99.90
58513;DHT22;44302;47.914;10.642;2022-12-07T10:33:58;2.40;99.90
58513;DHT22;44302;47.914;10.642;2022-12-07T10:38:48;2.50;99.90
58513;DHT22;44302;47.914;10.642;2022-12-07T10:41:15;2.60;99.90
58513;DHT22;44302;47.914;10.642;2022-12-07T10:43:59;2.80;99.90
58513;DHT22;44302;47.914;10.642;2022-12-07T10:46:49;3.10;99.90
58513;DHT22;44302;47.914;10.642;2022-12-07T10:54:34;3.10;99.90
58513;DHT22;44302;47.914;10.642;2022-12-07T11:00:36;3.10;99.90
58513;DHT22;44302;47.914;10.642;2022-12-07T11:06:01;3.10;99.90
58513;DHT22;44302;47.914;10.642;2022-12-07T11:11:13;3.50;99.90
58513;DHT22;44302;47.914;10.642;2022-12-07T11:22:19;3.90;99.90
58513;DHT22;44302;47.914;10.642;2022-12-07T11:27:45;3.80;99.90
58513;DHT22;44302;47.914;10.642;2022-12-07T11:30:13;3.60;99.90
58513;DHT22;44302;47.914;10.642;2022-12-07T11:38:14;4.00;99.90
58513;DHT22;44302;47.914;10.642;2022-12-07T11:40:45;4.10;99.90
58513;DHT22;44302;47.914;10.642;2022-12-07T11:43:22;4.10;99.90
58513;DHT22;44302;47.914;10.642;2022-12-07T11:46:04;4.00;99.90
58513;DHT22;44302;47.914;10.642;2022-12-07T11:48:49;3.80;99.90
58513;DHT22;44302;47.914;10.642;2022-12-07T11:51:18;3.70;99.90
58513;DHT22;44302;47.914;10.642;2022-12-07T11:56:21;4.30;99.90
58513;DHT22;44302;47.914;10.642;2022-12-07T12:04:32;4.50;99.90
58513;DHT22;44302;47.914;10.642;2022-12-07T12:06:59;4.40;99.90
58513;DHT22;44302;47.914;10.642;2022-12-07T12:09:35;4.30;99.90
58513;DHT22;44302;47.914;10.642;2022-12-07T12:20:22;4.70;99.90
58513;DHT22;44302;47.914;10.642;2022-12-07T12:23:05;5.00;99.90
58513;DHT22;44302;47.914;10.642;2022-12-07T12:25:40;5.20;99.90
58513;DHT22;44302;47.914;10.642;2022-12-07T12:28:31;5.20;99.90
58513;DHT22;44302;47.914;10.642;2022-12-07T12:33:33;5.20;99.90
58513;DHT22;44302;47.914;10.642;2022-12-07T12:39:08;5.00;99.90
58513;DHT22;44302;47.914;10.642;2022-12-07T12:46:52;4.70;99.90
58513;DHT22;44302;47.914;10.642;2022-12-07T12:51:52;4.70;99.90
58513;DHT22;44302;47.914;10.642;2022-12-07T12:57:00;4.60;99.90
58513;DHT22;44302;47.914;10.642;2022-12-07T13:02:29;4.70;99.90
58513;DHT22;44302;47.914;10.642;2022-12-07T13:20:46;4.90;99.90
58513;DHT22;44302;47.914;10.642;2022-12-07T13:23:14;4.90;99.90
58513;DHT22;44302;47.914;10.642;2022-12-07T13:25:51;4.80;99.90
58513;DHT22;44302;47.914;10.642;2022-12-07T13:28:20;4.80;99.90
58513;DHT22;44302;47.914;10.642;2022-12-07T13:30:54;4.90;99.90
58513;DHT22;44302;47.914;10.642;2022-12-07T13:33:24;4.90;99.90
58513;DHT22;44302;47.914;10.642;2022-12-07T13:35:55;4.70;99.90
58513;DHT22;44302;47.914;10.642;2022-12-07T13:38:26;4.70;99.90
58513;DHT22;44302;47.914;10.642;2022-12-07T13:41:19;4.60;99.90
58513;DHT22;44302;47.914;10.642;2022-12-07T13:43:54;4.50;99.90
58513;DHT22;44302;47.914;10.642;2022-12-07T13:46:26;4.40;99.90
58513;DHT22;44302;47.914;10.642;2022-12-07T13:48:56;4.30;99.90
58513;DHT22;44302;47.914;10.642;2022-12-07T13:51:25;4.30;99.90
58513;DHT22;44302;47.914;10.642;2022-12-07T13:53:55;4.30;99.90
58513;DHT22;44302;47.914;10.642;2022-12-07T13:56:22;4.20;99.90
58513;DHT22;44302;47.914;10.642;2022-12-07T13:58:51;4.20;99.90
58513;DHT22;44302;47.914;10.642;2022-12-07T14:01:17;4.20;99.90
58513;DHT22;44302;47.914;10.642;2022-12-07T14:03:43;4.00;99.90
58513;DHT22;44302;47.914;10.642;2022-12-07T14:06:23;4.00;99.90
58513;DHT22;44302;47.914;10.642;2022-12-07T14:09:05;3.90;99.90
58513;DHT22;44302;47.914;10.642;2022-12-07T14:11:31;3.80;99.90
58513;DHT22;44302;47.914;10.642;2022-12-07T14:13:59;3.80;99.90
58513;DHT22;44302;47.914;10.642;2022-12-07T14:16:32;3.80;99.90
58513;DHT22;44302;47.914;10.642;2022-12-07T14:19:04;3.70;99.90
58513;DHT22;44302;47.914;10.642;2022-12-07T14:21:33;3.60;99.90
58513;DHT22;44302;47.914;10.642;2022-12-07T14:24:16;3.60;99.90
58513;DHT22;44302;47.914;10.642;2022-12-07T14:26:44;3.50;99.90
58513;DHT22;44302;47.914;10.642;2022-12-07T14:31:55;3.50;99.90
58513;DHT22;44302;47.914;10.642;2022-12-07T14:34:22;3.40;99.90
58513;DHT22;44302;47.914;10.642;2022-12-07T14:36:48;3.30;99.90
58513;DHT22;44302;47.914;10.642;2022-12-07T14:39:13;3.30;99.90
58513;DHT22;44302;47.914;10.642;2022-12-07T14:41:39;3.20;99.90
58513;DHT22;44302;47.914;10.642;2022-12-07T14:44:22;3.10;99.90
58513;DHT22;44302;47.914;10.642;2022-12-07T14:46:49;3.10;99.90
58513;DHT22;44302;47.914;10.642;2022-12-07T14:49:15;3.00;99.90
58513;DHT22;44302;47.914;10.642;2022-12-07T14:51:42;3.00;99.90
58513;DHT22;44302;47.914;10.642;2022-12-07T14:54:20;2.80;99.90
58513;DHT22;44302;47.914;10.642;2022-12-07T14:56:46;2.80;99.90
58513;DHT22;44302;47.914;10.642;2022-12-07T15:01:42;2.80;99.90
58513;DHT22;44302;47.914;10.642;2022-12-07T15:04:08;2.80;99.90
58513;DHT22;44302;47.914;10.642;2022-12-07T15:06:34;2.70;99.90
58513;DHT22;44302;47.914;10.642;2022-12-07T15:09:00;2.70;99.90
58513;DHT22;44302;47.914;10.642;2022-12-07T15:11:25;2.70;99.90
58513;DHT22;44302;47.914;10.642;2022-12-07T15:13:51;2.60;99.90
58513;DHT22;44302;47.914;10.642;2022-12-07T15:16:38;2.60;99.90
58513;DHT22;44302;47.914;10.642;2022-12-07T15:19:06;2.60;99.90
58513;DHT22;44302;47.914;10.642;2022-12-07T15:21:32;2.60;99.90
58513;DHT22;44302;47.914;10.642;2022-12-07T15:23:57;2.60;99.90
58513;DHT22;44302;47.914;10.642;2022-12-07T15:26:23;2.60;99.90
58513;DHT22;44302;47.914;10.642;2022-12-07T15:28:48;2.60;99.90
58513;DHT22;44302;47.914;10.642;2022-12-07T15:31:16;2.60;99.90
58513;DHT22;44302;47.914;10.642;2022-12-07T15:33:42;2.60;99.90
58513;DHT22;44302;47.914;10.642;2022-12-07T15:36:23;2.50;99.90
58513;DHT22;44302;47.914;10.642;2022-12-07T15:38:49;2.50;99.90
58513;DHT22;44302;47.914;10.642;2022-12-07T15:41:15;2.50;99.90
58513;DHT22;44302;47.914;10.642;2022-12-07T15:43:41;2.50;99.90
58513;DHT22;44302;47.914;10.642;2022-12-07T15:46:33;2.50;99.90
58513;DHT22;44302;47.914;10.642;2022-12-07T15:49:00;2.40;99.90
58513;DHT22;44302;47.914;10.642;2022-12-07T15:51:25;2.40;99.90
58513;DHT22;44302;47.914;10.642;2022-12-07T15:53:52;2.40;99.90
58513;DHT22;44302;47.914;10.642;2022-12-07T15:56:18;2.40;99.90
58513;DHT22;44302;47.914;10.642;2022-12-07T15:58:44;2.40;99.90
58513;DHT22;44302;47.914;10.642;2022-12-07T16:01:13;2.40;99.90
58513;DHT22;44302;47.914;10.642;2022-12-07T16:03:39;2.40;99.90
58513;DHT22;44302;47.914;10.642;2022-12-07T16:06:05;2.40;99.90
58513;DHT22;44302;47.914;10.642;2022-12-07T16:08:31;2.40;99.90
58513;DHT22;44302;47.914;10.642;2022-12-07T16:10:56;2.40;99.90
58513;DHT22;44302;47.914;10.642;2022-12-07T16:13:22;2.40;99.90
58513;DHT22;44302;47.914;10.642;2022-12-07T16:15:48;2.40;99.90
58513;DHT22;44302;47.914;10.642;2022-12-07T16:18:13;2.30;99.90
58513;DHT22;44302;47.914;10.642;2022-12-07T16:20:39;2.30;99.90
58513;DHT22;44302;47.914;10.642;2022-12-07T16:23:05;2.30;99.90
58513;DHT22;44302;47.914;10.642;2022-12-07T16:25:31;2.30;99.90
58513;DHT22;44302;47.914;10.642;2022-12-07T16:27:57;2.30;99.90
58513;DHT22;44302;47.914;10.642;2022-12-07T16:30:22;2.30;99.90
58513;DHT22;44302;47.914;10.642;2022-12-07T16:32:48;2.30;99.90
58513;DHT22;44302;47.914;10.642;2022-12-07T16:35:13;2.20;99.90
58513;DHT22;44302;47.914;10.642;2022-12-07T16:37:41;2.10;99.90
58513;DHT22;44302;47.914;10.642;2022-12-07T16:40:08;2.10;99.90
58513;DHT22;44302;47.914;10.642;2022-12-07T16:42:34;2.00;99.90
58513;DHT22;44302;47.914;10.642;2022-12-07T16:45:01;2.00;99.90
58513;DHT22;44302;47.914;10.642;2022-12-07T16:47:27;2.00;99.90
58513;DHT22;44302;47.914;10.642;2022-12-07T16:49:53;2.00;99.90
58513;DHT22;44302;47.914;10.642;2022-12-07T16:52:19;2.00;99.90
58513;DHT22;44302;47.914;10.642;2022-12-07T16:54:45;2.00;99.90
58513;DHT22;44302;47.914;10.642;2022-12-07T16:57:11;2.00;99.90
58513;DHT22;44302;47.914;10.642;2022-12-07T16:59:37;2.00;99.90
58513;DHT22;44302;47.914;10.642;2022-12-07T17:02:02;2.00;99.90
58513;DHT22;44302;47.914;10.642;2022-12-07T17:04:29;2.00;99.90
58513;DHT22;44302;47.914;10.642;2022-12-07T17:06:55;1.90;99.90
58513;DHT22;44302;47.914;10.642;2022-12-07T17:09:20;1.90;99.90
58513;DHT22;44302;47.914;10.642;2022-12-07T17:11:46;1.90;99.90
58513;DHT22;44302;47.914;10.642;2022-12-07T17:14:12;1.80;99.90
58513;DHT22;44302;47.914;10.642;2022-12-07T17:16:56;1.80;99.90
58513;DHT22;44302;47.914;10.642;2022-12-07T17:19:22;1.80;99.90
58513;DHT22;44302;47.914;10.642;2022-12-07T17:21:48;1.80;99.90
58513;DHT22;44302;47.914;10.642;2022-12-07T17:24:15;1.80;99.90
58513;DHT22;44302;47.914;10.642;2022-12-07T17:26:43;1.80;99.90
58513;DHT22;44302;47.914;10.642;2022-12-07T17:29:11;1.80;99.90
58513;DHT22;44302;47.914;10.642;2022-12-07T17:31:38;1.80;99.90
58513;DHT22;44302;47.914;10.642;2022-12-07T17:34:03;1.80;99.90
58513;DHT22;44302;47.914;10.642;2022-12-07T17:36:30;1.80;99.90
